sensor_id;sensor_type;location;lat;lon;timestamp;temperature;humidity
64833;HTU21D;51290;45.060;38.948;2023-04-01T00:00:57;4.02;68.56
64833;HTU21D;51290;45.060;38.948;2023-04-01T00:03:24;4.02;68.62
64833;HTU21D;51290;45.060;38.948;2023-04-01T00:05:51;4.01;68.64
64833;HTU21D;51290;45.060;38.948;2023-04-01T00:08:17;4.00;68.66
64833;HTU21D;51290;45.060;38.948;2023-04-01T00:10:43;4.00;68.71
64833;HTU21D;51290;45.060;38.948;2023-04-01T00:13:10;4.01;68.74
64833;HTU21D;51290;45.060;38.948;2023-04-01T00:15:36;3.99;68.75
64833;HTU21D;51290;45.060;38.948;2023-04-01T00:18:02;3.99;68.80
64833;HTU21D;51290;45.060;38.948;2023-04-01T00:20:29;3.98;68.78
64833;HTU21D;51290;45.060;38.948;2023-04-01T00:22:56;3.95;68.77
64833;HTU21D;51290;45.060;38.948;2023-04-01T00:25:23;3.94;68.80
64833;HTU21D;51290;45.060;38.948;2023-04-01T00:27:49;3.92;68.86
64833;HTU21D;51290;45.060;38.948;2023-04-01T00:30:15;3.93;68.85
64833;HTU21D;51290;45.060;38.948;2023-04-01T00:32:41;3.92;68.84
64833;HTU21D;51290;45.060;38.948;2023-04-01T00:35:08;3.92;68.85
64833;HTU21D;51290;45.060;38.948;2023-04-01T00:37:37;3.93;68.87
64833;HTU21D;51290;45.060;38.948;2023-04-01T00:40:06;3.91;68.95
64833;HTU21D;51290;45.060;38.948;2023-04-01T00:42:33;3.91;69.02
64833;HTU21D;51290;45.060;38.948;2023-04-01T00:45:26;3.92;69.04
64833;HTU21D;51290;45.060;38.948;2023-04-01T00:47:53;3.93;68.94
64833;HTU21D;51290;45.060;38.948;2023-04-01T00:50:20;3.91;68.87
64833;HTU21D;51290;45.060;38.948;2023-04-01T00:52:47;3.88;68.87
64833;HTU21D;51290;45.060;38.948;2023-04-01T00:55:14;3.88;68.90
64833;HTU21D;51290;45.060;38.948;2023-04-01T00:57:43;3.87;68.85
64833;HTU21D;51290;45.060;38.948;2023-04-01T01:00:12;3.84;68.81
64833;HTU21D;51290;45.060;38.948;2023-04-01T01:02:45;3.82;68.81
64833;HTU21D;51290;45.060;38.948;2023-04-01T01:05:14;3.82;68.80
64833;HTU21D;51290;45.060;38.948;2023-04-01T01:07:51;3.78;68.86
64833;HTU21D;51290;45.060;38.948;2023-04-01T01:10:35;3.77;68.89
64833;HTU21D;51290;45.060;38.948;2023-04-01T01:16:27;3.75;68.81
64833;HTU21D;51290;45.060;38.948;2023-04-01T01:22:47;3.70;68.87
64833;HTU21D;51290;45.060;38.948;2023-04-01T01:25:18;3.68;68.88
64833;HTU21D;51290;45.060;38.948;2023-04-01T01:31:00;3.64;68.95
64833;HTU21D;51290;45.060;38.948;2023-04-01T01:36:12;3.64;69.09
64833;HTU21D;51290;45.060;38.948;2023-04-01T01:38:39;3.64;69.11
64833;HTU21D;51290;45.060;38.948;2023-04-01T01:41:07;3.64;69.19
64833;HTU21D;51290;45.060;38.948;2023-04-01T01:43:40;3.64;69.20
64833;HTU21D;51290;45.060;38.948;2023-04-01T01:46:12;3.65;69.17
64833;HTU21D;51290;45.060;38.948;2023-04-01T01:48:40;3.65;69.20
64833;HTU21D;51290;45.060;38.948;2023-04-01T01:51:07;3.67;69.22
64833;HTU21D;51290;45.060;38.948;2023-04-01T01:53:34;3.67;69.23
64833;HTU21D;51290;45.060;38.948;2023-04-01T01:56:00;3.67;69.29
64833;HTU21D;51290;45.060;38.948;2023-04-01T01:58:40;3.70;69.29
64833;HTU21D;51290;45.060;38.948;2023-04-01T02:01:20;3.70;69.28
64833;HTU21D;51290;45.060;38.948;2023-04-01T02:03:48;3.70;69.29
64833;HTU21D;51290;45.060;38.948;2023-04-01T02:06:17;3.73;69.38
64833;HTU21D;51290;45.060;38.948;2023-04-01T02:08:56;3.72;69.44
64833;HTU21D;51290;45.060;38.948;2023-04-01T02:11:30;3.73;69.42
64833;HTU21D;51290;45.060;38.948;2023-04-01T02:16:53;3.74;69.42
64833;HTU21D;51290;45.060;38.948;2023-04-01T02:19:25;3.73;69.44
64833;HTU21D;51290;45.060;38.948;2023-04-01T02:21:57;3.74;69.46
64833;HTU21D;51290;45.060;38.948;2023-04-01T02:24:26;3.74;69.48
64833;HTU21D;51290;45.060;38.948;2023-04-01T02:26:54;3.74;69.49
64833;HTU21D;51290;45.060;38.948;2023-04-01T02:29:22;3.75;69.50
64833;HTU21D;51290;45.060;38.948;2023-04-01T02:31:50;3.77;69.51
64833;HTU21D;51290;45.060;38.948;2023-04-01T02:34:16;3.75;69.53
64833;HTU21D;51290;45.060;38.948;2023-04-01T02:36:42;3.78;69.55
64833;HTU21D;51290;45.060;38.948;2023-04-01T02:39:08;3.76;69.49
64833;HTU21D;51290;45.060;38.948;2023-04-01T02:41:44;3.75;69.49
64833;HTU21D;51290;45.060;38.948;2023-04-01T02:44:12;3.75;69.46
64833;HTU21D;51290;45.060;38.948;2023-04-01T02:46:39;3.74;69.47
64833;HTU21D;51290;45.060;38.948;2023-04-01T02:49:05;3.73;69.50
64833;HTU21D;51290;45.060;38.948;2023-04-01T02:51:32;3.74;69.51
64833;HTU21D;51290;45.060;38.948;2023-04-01T02:53:58;3.75;69.57
64833;HTU21D;51290;45.060;38.948;2023-04-01T02:56:24;3.77;69.61
64833;HTU21D;51290;45.060;38.948;2023-04-01T02:58:52;3.79;69.57
64833;HTU21D;51290;45.060;38.948;2023-04-01T03:01:18;3.80;69.57
64833;HTU21D;51290;45.060;38.948;2023-04-01T03:03:44;3.83;69.58
64833;HTU21D;51290;45.060;38.948;2023-04-01T03:06:12;3.83;69.59
64833;HTU21D;51290;45.060;38.948;2023-04-01T03:08:39;3.87;69.63
64833;HTU21D;51290;45.060;38.948;2023-04-01T03:11:05;3.88;69.61
64833;HTU21D;51290;45.060;38.948;2023-04-01T03:13:35;3.91;69.58
64833;HTU21D;51290;45.060;38.948;2023-04-01T03:16:01;3.94;69.60
64833;HTU21D;51290;45.060;38.948;2023-04-01T03:18:27;3.98;69.57
64833;HTU21D;51290;45.060;38.948;2023-04-01T03:20:53;4.00;69.60
64833;HTU21D;51290;45.060;38.948;2023-04-01T03:23:19;4.02;69.61
64833;HTU21D;51290;45.060;38.948;2023-04-01T03:25:47;4.07;69.58
64833;HTU21D;51290;45.060;38.948;2023-04-01T03:28:14;4.12;69.55
64833;HTU21D;51290;45.060;38.948;2023-04-01T03:30:40;4.14;69.53
64833;HTU21D;51290;45.060;38.948;2023-04-01T03:33:07;4.18;69.52
64833;HTU21D;51290;45.060;38.948;2023-04-01T03:35:33;4.22;69.52
64833;HTU21D;51290;45.060;38.948;2023-04-01T03:38:01;4.27;69.52
64833;HTU21D;51290;45.060;38.948;2023-04-01T03:40:28;4.32;69.52
64833;HTU21D;51290;45.060;38.948;2023-04-01T03:42:54;4.36;69.46
64833;HTU21D;51290;45.060;38.948;2023-04-01T03:45:21;4.41;69.44
64833;HTU21D;51290;45.060;38.948;2023-04-01T03:47:47;4.47;69.42
64833;HTU21D;51290;45.060;38.948;2023-04-01T03:50:13;4.53;69.40
64833;HTU21D;51290;45.060;38.948;2023-04-01T03:52:41;4.59;69.34
64833;HTU21D;51290;45.060;38.948;2023-04-01T03:55:07;4.66;69.29
64833;HTU21D;51290;45.060;38.948;2023-04-01T03:57:34;4.74;69.24
64833;HTU21D;51290;45.060;38.948;2023-04-01T04:00:10;4.83;69.16
64833;HTU21D;51290;45.060;38.948;2023-04-01T04:02:39;4.92;69.13
64833;HTU21D;51290;45.060;38.948;2023-04-01T04:05:06;5.01;69.03
64833;HTU21D;51290;45.060;38.948;2023-04-01T04:07:34;5.09;68.94
64833;HTU21D;51290;45.060;38.948;2023-04-01T04:10:07;5.17;68.87
64833;HTU21D;51290;45.060;38.948;2023-04-01T04:12:33;5.25;68.83
64833;HTU21D;51290;45.060;38.948;2023-04-01T04:14:59;5.34;68.78
64833;HTU21D;51290;45.060;38.948;2023-04-01T04:17:25;5.43;68.71
64833;HTU21D;51290;45.060;38.948;2023-04-01T04:19:52;5.54;68.64
64833;HTU21D;51290;45.060;38.948;2023-04-01T04:22:18;5.64;68.57
64833;HTU21D;51290;45.060;38.948;2023-04-01T04:24:44;5.75;68.51
64833;HTU21D;51290;45.060;38.948;2023-04-01T04:27:12;5.85;68.33
64833;HTU21D;51290;45.060;38.948;2023-04-01T04:29:50;5.96;68.21
64833;HTU21D;51290;45.060;38.948;2023-04-01T04:32:16;6.06;68.12
64833;HTU21D;51290;45.060;38.948;2023-04-01T04:34:43;6.14;68.01
64833;HTU21D;51290;45.060;38.948;2023-04-01T04:37:09;6.23;67.90
64833;HTU21D;51290;45.060;38.948;2023-04-01T04:39:36;6.33;67.72
64833;HTU21D;51290;45.060;38.948;2023-04-01T04:42:02;6.42;67.61
64833;HTU21D;51290;45.060;38.948;2023-04-01T04:44:28;6.51;67.52
64833;HTU21D;51290;45.060;38.948;2023-04-01T04:46:54;6.58;67.30
64833;HTU21D;51290;45.060;38.948;2023-04-01T04:49:21;6.67;67.13
64833;HTU21D;51290;45.060;38.948;2023-04-01T04:51:47;6.73;66.94
64833;HTU21D;51290;45.060;38.948;2023-04-01T04:54:15;6.79;66.74
64833;HTU21D;51290;45.060;38.948;2023-04-01T04:56:52;6.86;66.51
64833;HTU21D;51290;45.060;38.948;2023-04-01T04:59:19;6.91;66.38
64833;HTU21D;51290;45.060;38.948;2023-04-01T05:02:05;6.98;66.14
64833;HTU21D;51290;45.060;38.948;2023-04-01T05:04:35;7.02;66.07
64833;HTU21D;51290;45.060;38.948;2023-04-01T05:07:02;7.09;65.98
64833;HTU21D;51290;45.060;38.948;2023-04-01T05:09:29;7.18;66.00
64833;HTU21D;51290;45.060;38.948;2023-04-01T05:11:55;7.28;65.95
64833;HTU21D;51290;45.060;38.948;2023-04-01T05:14:23;7.38;65.81
64833;HTU21D;51290;45.060;38.948;2023-04-01T05:17:07;7.49;65.61
64833;HTU21D;51290;45.060;38.948;2023-04-01T05:19:33;7.59;65.50
64833;HTU21D;51290;45.060;38.948;2023-04-01T05:22:00;7.68;65.08
64833;HTU21D;51290;45.060;38.948;2023-04-01T05:24:25;7.71;64.65
64833;HTU21D;51290;45.060;38.948;2023-04-01T05:26:52;7.77;64.44
64833;HTU21D;51290;45.060;38.948;2023-04-01T05:29:18;7.82;64.40
64833;HTU21D;51290;45.060;38.948;2023-04-01T05:31:47;7.87;64.50
64833;HTU21D;51290;45.060;38.948;2023-04-01T05:34:13;7.94;64.40
64833;HTU21D;51290;45.060;38.948;2023-04-01T05:36:39;8.03;64.26
64833;HTU21D;51290;45.060;38.948;2023-04-01T05:39:07;8.08;63.95
64833;HTU21D;51290;45.060;38.948;2023-04-01T05:41:37;8.15;63.84
64833;HTU21D;51290;45.060;38.948;2023-04-01T05:44:04;8.20;63.95
64833;HTU21D;51290;45.060;38.948;2023-04-01T05:46:39;8.28;63.79
64833;HTU21D;51290;45.060;38.948;2023-04-01T05:49:35;8.35;63.61
64833;HTU21D;51290;45.060;38.948;2023-04-01T05:52:02;8.37;63.45
64833;HTU21D;51290;45.060;38.948;2023-04-01T05:54:29;8.42;63.29
64833;HTU21D;51290;45.060;38.948;2023-04-01T05:56:55;8.47;63.33
64833;HTU21D;51290;45.060;38.948;2023-04-01T05:59:21;8.51;63.37
64833;HTU21D;51290;45.060;38.948;2023-04-01T06:01:47;8.56;63.33
64833;HTU21D;51290;45.060;38.948;2023-04-01T06:04:16;8.61;63.31
64833;HTU21D;51290;45.060;38.948;2023-04-01T06:06:43;8.67;63.15
64833;HTU21D;51290;45.060;38.948;2023-04-01T06:09:15;8.71;63.04
64833;HTU21D;51290;45.060;38.948;2023-04-01T06:14:44;8.83;62.84
64833;HTU21D;51290;45.060;38.948;2023-04-01T06:20:04;8.96;62.44
64833;HTU21D;51290;45.060;38.948;2023-04-01T06:22:45;9.00;62.40
64833;HTU21D;51290;45.060;38.948;2023-04-01T06:28:30;9.11;62.34
64833;HTU21D;51290;45.060;38.948;2023-04-01T06:34:39;9.19;61.85
64833;HTU21D;51290;45.060;38.948;2023-04-01T06:37:28;9.24;61.70
64833;HTU21D;51290;45.060;38.948;2023-04-01T06:45:50;9.36;61.59
64833;HTU21D;51290;45.060;38.948;2023-04-01T06:48:53;9.46;61.83
64833;HTU21D;51290;45.060;38.948;2023-04-01T06:51:47;9.60;61.81
64833;HTU21D;51290;45.060;38.948;2023-04-01T06:54:38;9.72;61.34
64833;HTU21D;51290;45.060;38.948;2023-04-01T06:59:55;9.81;60.99
64833;HTU21D;51290;45.060;38.948;2023-04-01T07:02:37;9.86;61.09
64833;HTU21D;51290;45.060;38.948;2023-04-01T07:05:05;9.92;60.97
64833;HTU21D;51290;45.060;38.948;2023-04-01T07:07:50;9.98;60.75
64833;HTU21D;51290;45.060;38.948;2023-04-01T07:13:15;10.10;60.44
64833;HTU21D;51290;45.060;38.948;2023-04-01T07:16:12;10.21;60.44
64833;HTU21D;51290;45.060;38.948;2023-04-01T07:18:45;10.33;60.32
64833;HTU21D;51290;45.060;38.948;2023-04-01T07:21:22;10.41;60.15
64833;HTU21D;51290;45.060;38.948;2023-04-01T07:23:53;10.45;59.85
64833;HTU21D;51290;45.060;38.948;2023-04-01T07:26:34;10.53;59.96
64833;HTU21D;51290;45.060;38.948;2023-04-01T07:29:21;10.60;59.96
64833;HTU21D;51290;45.060;38.948;2023-04-01T07:32:27;10.66;59.77
64833;HTU21D;51290;45.060;38.948;2023-04-01T07:51:20;11.13;59.00
64833;HTU21D;51290;45.060;38.948;2023-04-01T07:56:36;11.19;58.38
64833;HTU21D;51290;45.060;38.948;2023-04-01T08:07:49;11.37;57.96
64833;HTU21D;51290;45.060;38.948;2023-04-01T08:17:02;11.68;57.98
64833;HTU21D;51290;45.060;38.948;2023-04-01T08:22:57;11.84;57.99
64833;HTU21D;51290;45.060;38.948;2023-04-01T08:25:30;11.88;57.50
64833;HTU21D;51290;45.060;38.948;2023-04-01T08:30:43;12.02;57.26
64833;HTU21D;51290;45.060;38.948;2023-04-01T08:33:25;12.12;57.00
64833;HTU21D;51290;45.060;38.948;2023-04-01T08:36:17;12.14;56.61
64833;HTU21D;51290;45.060;38.948;2023-04-01T08:47:50;12.19;56.42
64833;HTU21D;51290;45.060;38.948;2023-04-01T08:53:50;12.28;56.11
64833;HTU21D;51290;45.060;38.948;2023-04-01T08:56:27;12.31;55.96
64833;HTU21D;51290;45.060;38.948;2023-04-01T09:02:38;12.34;56.18
64833;HTU21D;51290;45.060;38.948;2023-04-01T09:06:10;12.43;56.14
64833;HTU21D;51290;45.060;38.948;2023-04-01T09:14:41;12.60;55.20
64833;HTU21D;51290;45.060;38.948;2023-04-01T09:23:46;12.67;55.42
64833;HTU21D;51290;45.060;38.948;2023-04-01T09:26:25;12.74;55.29
64833;HTU21D;51290;45.060;38.948;2023-04-01T09:32:03;12.78;55.04
64833;HTU21D;51290;45.060;38.948;2023-04-01T09:38:42;12.74;55.04
64833;HTU21D;51290;45.060;38.948;2023-04-01T10:07:21;13.20;54.78
64833;HTU21D;51290;45.060;38.948;2023-04-01T10:14:03;13.34;54.55
64833;HTU21D;51290;45.060;38.948;2023-04-01T10:49:45;13.35;53.01
64833;HTU21D;51290;45.060;38.948;2023-04-01T11:04:45;13.43;52.82
64833;HTU21D;51290;45.060;38.948;2023-04-01T11:08:04;13.44;52.88
64833;HTU21D;51290;45.060;38.948;2023-04-01T11:11:07;13.49;52.72
64833;HTU21D;51290;45.060;38.948;2023-04-01T11:13:50;13.49;52.67
64833;HTU21D;51290;45.060;38.948;2023-04-01T11:27:51;13.50;52.56
64833;HTU21D;51290;45.060;38.948;2023-04-01T11:42:17;13.74;52.32
64833;HTU21D;51290;45.060;38.948;2023-04-01T11:56:53;13.83;50.92
64833;HTU21D;51290;45.060;38.948;2023-04-01T12:10:21;13.74;51.22
64833;HTU21D;51290;45.060;38.948;2023-04-01T12:16:29;13.63;51.19
64833;HTU21D;51290;45.060;38.948;2023-04-01T12:21:37;13.54;51.34
64833;HTU21D;51290;45.060;38.948;2023-04-01T12:24:09;13.53;51.49
64833;HTU21D;51290;45.060;38.948;2023-04-01T12:27:02;13.55;51.39
64833;HTU21D;51290;45.060;38.948;2023-04-01T12:43:11;13.75;51.43
64833;HTU21D;51290;45.060;38.948;2023-04-01T13:10:09;13.73;50.65
64833;HTU21D;51290;45.060;38.948;2023-04-01T13:18:30;13.67;50.07
64833;HTU21D;51290;45.060;38.948;2023-04-01T13:31:52;13.61;50.01
64833;HTU21D;51290;45.060;38.948;2023-04-01T13:39:57;13.54;50.02
64833;HTU21D;51290;45.060;38.948;2023-04-01T13:42:36;13.50;50.09
64833;HTU21D;51290;45.060;38.948;2023-04-01T13:45:25;13.46;49.89
64833;HTU21D;51290;45.060;38.948;2023-04-01T13:59:40;13.33;49.69
64833;HTU21D;51290;45.060;38.948;2023-04-01T14:18:47;13.16;49.16
64833;HTU21D;51290;45.060;38.948;2023-04-01T14:21:31;13.12;49.26
64833;HTU21D;51290;45.060;38.948;2023-04-01T14:24:08;13.09;49.21
64833;HTU21D;51290;45.060;38.948;2023-04-01T14:27:16;13.04;49.31
64833;HTU21D;51290;45.060;38.948;2023-04-01T14:35:41;12.93;49.25
64833;HTU21D;51290;45.060;38.948;2023-04-01T14:38:34;12.89;49.42
64833;HTU21D;51290;45.060;38.948;2023-04-01T14:49:46;12.72;49.04
64833;HTU21D;51290;45.060;38.948;2023-04-01T14:52:31;12.67;49.09
64833;HTU21D;51290;45.060;38.948;2023-04-01T14:54:58;12.64;49.28
64833;HTU21D;51290;45.060;38.948;2023-04-01T14:57:28;12.59;49.39
64833;HTU21D;51290;45.060;38.948;2023-04-01T15:02:48;12.47;49.42
64833;HTU21D;51290;45.060;38.948;2023-04-01T15:05:31;12.43;49.42
64833;HTU21D;51290;45.060;38.948;2023-04-01T15:34:57;11.85;48.77
64833;HTU21D;51290;45.060;38.948;2023-04-01T15:38:14;11.75;48.81
64833;HTU21D;51290;45.060;38.948;2023-04-01T15:48:50;11.41;49.34
64833;HTU21D;51290;45.060;38.948;2023-04-01T15:51:27;11.29;49.46
64833;HTU21D;51290;45.060;38.948;2023-04-01T15:54:14;11.17;49.61
64833;HTU21D;51290;45.060;38.948;2023-04-01T15:57:05;11.04;49.75
64833;HTU21D;51290;45.060;38.948;2023-04-01T16:00:02;10.94;49.76
64833;HTU21D;51290;45.060;38.948;2023-04-01T16:02:51;10.85;49.69
64833;HTU21D;51290;45.060;38.948;2023-04-01T16:08:21;10.73;49.69
64833;HTU21D;51290;45.060;38.948;2023-04-01T16:11:11;10.68;49.76
64833;HTU21D;51290;45.060;38.948;2023-04-01T16:14:11;10.63;49.64
64833;HTU21D;51290;45.060;38.948;2023-04-01T16:25:09;10.40;49.78
64833;HTU21D;51290;45.060;38.948;2023-04-01T16:41:58;10.03;49.89
64833;HTU21D;51290;45.060;38.948;2023-04-01T16:47:34;9.91;50.00
64833;HTU21D;51290;45.060;38.948;2023-04-01T16:50:13;9.86;50.04
64833;HTU21D;51290;45.060;38.948;2023-04-01T16:52:53;9.81;50.11
64833;HTU21D;51290;45.060;38.948;2023-04-01T16:55:35;9.74;50.17
64833;HTU21D;51290;45.060;38.948;2023-04-01T16:58:09;9.69;50.22
64833;HTU21D;51290;45.060;38.948;2023-04-01T17:00:40;9.63;50.29
64833;HTU21D;51290;45.060;38.948;2023-04-01T17:05:57;9.55;50.42
64833;HTU21D;51290;45.060;38.948;2023-04-01T17:11:26;9.50;50.48
64833;HTU21D;51290;45.060;38.948;2023-04-01T17:24:55;9.35;50.53
64833;HTU21D;51290;45.060;38.948;2023-04-01T17:41:05;9.12;50.60
64833;HTU21D;51290;45.060;38.948;2023-04-01T17:44:01;9.11;50.59
64833;HTU21D;51290;45.060;38.948;2023-04-01T17:49:42;9.02;50.63
64833;HTU21D;51290;45.060;38.948;2023-04-01T17:52:30;8.98;50.62
64833;HTU21D;51290;45.060;38.948;2023-04-01T18:08:56;8.75;50.85
64833;HTU21D;51290;45.060;38.948;2023-04-01T18:11:39;8.72;50.85
64833;HTU21D;51290;45.060;38.948;2023-04-01T18:18:00;8.62;50.79
64833;HTU21D;51290;45.060;38.948;2023-04-01T18:23:02;8.52;50.74
64833;HTU21D;51290;45.060;38.948;2023-04-01T18:25:36;8.49;50.81
64833;HTU21D;51290;45.060;38.948;2023-04-01T18:30:40;8.37;50.92
64833;HTU21D;51290;45.060;38.948;2023-04-01T18:33:34;8.33;50.92
64833;HTU21D;51290;45.060;38.948;2023-04-01T18:36:24;8.28;50.97
64833;HTU21D;51290;45.060;38.948;2023-04-01T18:39:02;8.23;51.04
64833;HTU21D;51290;45.060;38.948;2023-04-01T18:42:00;8.18;51.13
64833;HTU21D;51290;45.060;38.948;2023-04-01T18:45:00;8.11;51.18
64833;HTU21D;51290;45.060;38.948;2023-04-01T18:53:30;7.97;51.39
64833;HTU21D;51290;45.060;38.948;2023-04-01T18:56:00;7.90;51.50
64833;HTU21D;51290;45.060;38.948;2023-04-01T18:58:48;7.84;51.57
64833;HTU21D;51290;45.060;38.948;2023-04-01T19:04:23;7.75;51.77
64833;HTU21D;51290;45.060;38.948;2023-04-01T19:06:51;7.73;51.83
64833;HTU21D;51290;45.060;38.948;2023-04-01T19:09:43;7.68;51.86
64833;HTU21D;51290;45.060;38.948;2023-04-01T19:17:25;7.62;52.04
64833;HTU21D;51290;45.060;38.948;2023-04-01T19:23:11;7.61;51.98
64833;HTU21D;51290;45.060;38.948;2023-04-01T19:25:54;7.59;52.01
64833;HTU21D;51290;45.060;38.948;2023-04-01T19:28:43;7.59;52.04
64833;HTU21D;51290;45.060;38.948;2023-04-01T19:31:34;7.59;52.04
64833;HTU21D;51290;45.060;38.948;2023-04-01T19:34:34;7.56;52.01
64833;HTU21D;51290;45.060;38.948;2023-04-01T19:37:26;7.56;51.89
64833;HTU21D;51290;45.060;38.948;2023-04-01T19:46:14;7.52;51.95
64833;HTU21D;51290;45.060;38.948;2023-04-01T19:49:05;7.47;51.98
64833;HTU21D;51290;45.060;38.948;2023-04-01T19:51:37;7.43;52.03
64833;HTU21D;51290;45.060;38.948;2023-04-01T19:54:37;7.37;52.07
64833;HTU21D;51290;45.060;38.948;2023-04-01T19:57:13;7.34;52.09
64833;HTU21D;51290;45.060;38.948;2023-04-01T20:08:05;7.20;52.17
64833;HTU21D;51290;45.060;38.948;2023-04-01T20:16:06;7.11;52.28
64833;HTU21D;51290;45.060;38.948;2023-04-01T20:19:00;7.07;52.33
64833;HTU21D;51290;45.060;38.948;2023-04-01T20:21:45;7.03;52.37
64833;HTU21D;51290;45.060;38.948;2023-04-01T20:24:17;7.00;52.43
64833;HTU21D;51290;45.060;38.948;2023-04-01T20:26:59;6.99;52.46
64833;HTU21D;51290;45.060;38.948;2023-04-01T20:35:32;6.95;52.51
64833;HTU21D;51290;45.060;38.948;2023-04-01T20:40:49;6.88;52.56
64833;HTU21D;51290;45.060;38.948;2023-04-01T20:44:10;6.84;52.58
64833;HTU21D;51290;45.060;38.948;2023-04-01T20:46:22;6.80;52.66
64833;HTU21D;51290;45.060;38.948;2023-04-01T20:49:13;6.76;52.70
64833;HTU21D;51290;45.060;38.948;2023-04-01T20:59:47;6.68;52.81
64833;HTU21D;51290;45.060;38.948;2023-04-01T21:11:16;6.56;52.79
64833;HTU21D;51290;45.060;38.948;2023-04-01T21:20:02;6.43;52.91
64833;HTU21D;51290;45.060;38.948;2023-04-01T21:25:26;6.31;52.96
64833;HTU21D;51290;45.060;38.948;2023-04-01T21:39:20;6.04;53.12
64833;HTU21D;51290;45.060;38.948;2023-04-01T21:45:53;5.92;53.34
64833;HTU21D;51290;45.060;38.948;2023-04-01T22:06:42;6.14;53.11
64833;HTU21D;51290;45.060;38.948;2023-04-01T22:14:35;5.99;53.20
64833;HTU21D;51290;45.060;38.948;2023-04-01T22:17:35;5.95;53.24
64833;HTU21D;51290;45.060;38.948;2023-04-01T22:20:27;5.89;53.28
64833;HTU21D;51290;45.060;38.948;2023-04-01T22:25:49;5.77;53.40
64833;HTU21D;51290;45.060;38.948;2023-04-01T22:31:03;5.68;53.56
64833;HTU21D;51290;45.060;38.948;2023-04-01T22:34:16;5.68;53.65
64833;HTU21D;51290;45.060;38.948;2023-04-01T22:44:47;5.69;53.83
64833;HTU21D;51290;45.060;38.948;2023-04-01T22:47:39;5.72;53.83
64833;HTU21D;51290;45.060;38.948;2023-04-01T22:50:22;5.78;53.86
64833;HTU21D;51290;45.060;38.948;2023-04-01T22:52:57;5.81;53.87
64833;HTU21D;51290;45.060;38.948;2023-04-01T22:55:30;5.83;53.85
64833;HTU21D;51290;45.060;38.948;2023-04-01T22:58:04;5.85;53.88
64833;HTU21D;51290;45.060;38.948;2023-04-01T23:00:42;5.89;53.88
64833;HTU21D;51290;45.060;38.948;2023-04-01T23:03:32;5.90;53.84
64833;HTU21D;51290;45.060;38.948;2023-04-01T23:06:02;5.89;53.82
64833;HTU21D;51290;45.060;38.948;2023-04-01T23:08:51;5.89;53.85
64833;HTU21D;51290;45.060;38.948;2023-04-01T23:11:26;5.87;53.86
64833;HTU21D;51290;45.060;38.948;2023-04-01T23:16:39;5.84;53.90
64833;HTU21D;51290;45.060;38.948;2023-04-01T23:19:14;5.81;53.98
64833;HTU21D;51290;45.060;38.948;2023-04-01T23:21:50;5.82;54.00
64833;HTU21D;51290;45.060;38.948;2023-04-01T23:24:38;5.78;53.99
64833;HTU21D;51290;45.060;38.948;2023-04-01T23:27:12;5.77;54.04
64833;HTU21D;51290;45.060;38.948;2023-04-01T23:29:42;5.76;54.11
64833;HTU21D;51290;45.060;38.948;2023-04-01T23:32:19;5.76;54.14
64833;HTU21D;51290;45.060;38.948;2023-04-01T23:34:57;5.75;54.13
64833;HTU21D;51290;45.060;38.948;2023-04-01T23:37:25;5.72;54.13
64833;HTU21D;51290;45.060;38.948;2023-04-01T23:39:57;5.70;54.21
64833;HTU21D;51290;45.060;38.948;2023-04-01T23:42:29;5.70;54.30
64833;HTU21D;51290;45.060;38.948;2023-04-01T23:45:02;5.70;54.37
64833;HTU21D;51290;45.060;38.948;2023-04-01T23:47:38;5.72;54.42
64833;HTU21D;51290;45.060;38.948;2023-04-01T23:50:10;5.74;54.42
64833;HTU21D;51290;45.060;38.948;2023-04-01T23:52:43;5.74;54.34
